sensor_id;sensor_type;location;lat;lon;timestamp;P1;durP1;ratioP1;P2;durP2;ratioP2
37529;SDS011;23374;52.758;6.872;2023-06-24T00:01:45;6.43;;;3.67;;
37529;SDS011;23374;52.758;6.872;2023-06-24T00:04:06;6.87;;;4.20;;
37529;SDS011;23374;52.758;6.872;2023-06-24T00:06:26;6.03;;;3.67;;
37529;SDS011;23374;52.758;6.872;2023-06-24T00:08:50;6.43;;;3.80;;
37529;SDS011;23374;52.758;6.872;2023-06-24T00:11:11;10.20;;;4.30;;
37529;SDS011;23374;52.758;6.872;2023-06-24T00:13:32;6.33;;;3.27;;
37529;SDS011;23374;52.758;6.872;2023-06-24T00:15:53;5.37;;;3.83;;
37529;SDS011;23374;52.758;6.872;2023-06-24T00:18:14;6.87;;;3.83;;
37529;SDS011;23374;52.758;6.872;2023-06-24T00:20:34;5.50;;;4.07;;
37529;SDS011;23374;52.758;6.872;2023-06-24T00:22:54;5.27;;;3.93;;
37529;SDS011;23374;52.758;6.872;2023-06-24T00:25:14;4.67;;;3.77;;
37529;SDS011;23374;52.758;6.872;2023-06-24T00:27:35;7.27;;;4.47;;
37529;SDS011;23374;52.758;6.872;2023-06-24T00:29:55;6.83;;;4.40;;
37529;SDS011;23374;52.758;6.872;2023-06-24T00:32:16;5.80;;;3.70;;
37529;SDS011;23374;52.758;6.872;2023-06-24T00:34:36;5.63;;;3.93;;
37529;SDS011;23374;52.758;6.872;2023-06-24T00:36:56;6.60;;;4.17;;
37529;SDS011;23374;52.758;6.872;2023-06-24T00:39:17;6.77;;;4.13;;
37529;SDS011;23374;52.758;6.872;2023-06-24T00:41:37;8.17;;;4.37;;
37529;SDS011;23374;52.758;6.872;2023-06-24T00:43:57;8.37;;;4.20;;
37529;SDS011;23374;52.758;6.872;2023-06-24T00:46:18;6.77;;;4.50;;
37529;SDS011;23374;52.758;6.872;2023-06-24T00:48:39;7.60;;;4.50;;
37529;SDS011;23374;52.758;6.872;2023-06-24T00:50:59;8.60;;;4.40;;
37529;SDS011;23374;52.758;6.872;2023-06-24T00:53:20;7.73;;;4.60;;
37529;SDS011;23374;52.758;6.872;2023-06-24T00:55:47;9.47;;;4.60;;
37529;SDS011;23374;52.758;6.872;2023-06-24T00:58:07;6.03;;;3.90;;
37529;SDS011;23374;52.758;6.872;2023-06-24T01:01:51;6.93;;;4.37;;
37529;SDS011;23374;52.758;6.872;2023-06-24T01:04:13;7.43;;;4.70;;
37529;SDS011;23374;52.758;6.872;2023-06-24T01:06:35;6.10;;;4.03;;
37529;SDS011;23374;52.758;6.872;2023-06-24T01:08:56;7.27;;;4.00;;
37529;SDS011;23374;52.758;6.872;2023-06-24T01:11:19;6.57;;;4.23;;
37529;SDS011;23374;52.758;6.872;2023-06-24T01:13:40;6.50;;;4.57;;
37529;SDS011;23374;52.758;6.872;2023-06-24T01:16:02;7.37;;;4.70;;
37529;SDS011;23374;52.758;6.872;2023-06-24T01:18:38;8.70;;;4.60;;
37529;SDS011;23374;52.758;6.872;2023-06-24T01:21:18;7.00;;;4.03;;
37529;SDS011;23374;52.758;6.872;2023-06-24T01:24:07;5.43;;;3.80;;
37529;SDS011;23374;52.758;6.872;2023-06-24T01:29:41;9.17;;;4.30;;
37529;SDS011;23374;52.758;6.872;2023-06-24T01:35:06;7.10;;;4.00;;
37529;SDS011;23374;52.758;6.872;2023-06-24T01:37:46;10.00;;;5.00;;
37529;SDS011;23374;52.758;6.872;2023-06-24T01:40:18;7.00;;;4.57;;
37529;SDS011;23374;52.758;6.872;2023-06-24T01:42:47;8.03;;;4.60;;
37529;SDS011;23374;52.758;6.872;2023-06-24T01:45:12;6.93;;;4.43;;
37529;SDS011;23374;52.758;6.872;2023-06-24T01:47:34;6.50;;;4.30;;
37529;SDS011;23374;52.758;6.872;2023-06-24T01:49:57;7.97;;;4.67;;
37529;SDS011;23374;52.758;6.872;2023-06-24T01:52:22;8.57;;;4.50;;
37529;SDS011;23374;52.758;6.872;2023-06-24T01:54:45;6.20;;;4.00;;
37529;SDS011;23374;52.758;6.872;2023-06-24T01:57:08;8.63;;;5.20;;
37529;SDS011;23374;52.758;6.872;2023-06-24T01:59:31;5.90;;;4.53;;
37529;SDS011;23374;52.758;6.872;2023-06-24T02:01:53;8.75;;;5.60;;
37529;SDS011;23374;52.758;6.872;2023-06-24T02:04:13;6.80;;;4.53;;
37529;SDS011;23374;52.758;6.872;2023-06-24T02:06:36;7.37;;;4.70;;
37529;SDS011;23374;52.758;6.872;2023-06-24T02:08:58;9.80;;;4.93;;
37529;SDS011;23374;52.758;6.872;2023-06-24T02:11:21;8.43;;;4.30;;
37529;SDS011;23374;52.758;6.872;2023-06-24T02:13:43;6.10;;;4.60;;
37529;SDS011;23374;52.758;6.872;2023-06-24T02:16:05;8.63;;;5.00;;
37529;SDS011;23374;52.758;6.872;2023-06-24T02:18:28;9.70;;;4.57;;
37529;SDS011;23374;52.758;6.872;2023-06-24T02:20:48;7.47;;;4.73;;
37529;SDS011;23374;52.758;6.872;2023-06-24T02:23:10;6.03;;;4.20;;
37529;SDS011;23374;52.758;6.872;2023-06-24T02:25:32;6.83;;;4.57;;
37529;SDS011;23374;52.758;6.872;2023-06-24T02:27:53;7.60;;;4.90;;
37529;SDS011;23374;52.758;6.872;2023-06-24T02:30:15;7.83;;;4.40;;
37529;SDS011;23374;52.758;6.872;2023-06-24T02:32:36;6.20;;;4.43;;
37529;SDS011;23374;52.758;6.872;2023-06-24T02:34:58;6.93;;;5.13;;
37529;SDS011;23374;52.758;6.872;2023-06-24T02:37:18;6.87;;;4.60;;
37529;SDS011;23374;52.758;6.872;2023-06-24T02:39:39;6.60;;;4.20;;
37529;SDS011;23374;52.758;6.872;2023-06-24T02:42:04;9.63;;;4.80;;
37529;SDS011;23374;52.758;6.872;2023-06-24T02:44:24;8.90;;;5.03;;
37529;SDS011;23374;52.758;6.872;2023-06-24T02:46:45;8.53;;;4.50;;
37529;SDS011;23374;52.758;6.872;2023-06-24T02:49:07;9.37;;;5.20;;
37529;SDS011;23374;52.758;6.872;2023-06-24T02:51:29;7.53;;;4.70;;
37529;SDS011;23374;52.758;6.872;2023-06-24T02:53:50;8.67;;;4.73;;
37529;SDS011;23374;52.758;6.872;2023-06-24T02:56:11;6.60;;;4.20;;
37529;SDS011;23374;52.758;6.872;2023-06-24T02:58:33;8.53;;;4.40;;
37529;SDS011;23374;52.758;6.872;2023-06-24T03:01:01;7.60;;;4.77;;
37529;SDS011;23374;52.758;6.872;2023-06-24T03:03:26;7.97;;;4.90;;
37529;SDS011;23374;52.758;6.872;2023-06-24T03:05:47;6.50;;;4.77;;
37529;SDS011;23374;52.758;6.872;2023-06-24T03:08:09;7.50;;;5.13;;
37529;SDS011;23374;52.758;6.872;2023-06-24T03:10:30;8.97;;;5.30;;
37529;SDS011;23374;52.758;6.872;2023-06-24T03:12:52;7.73;;;5.33;;
37529;SDS011;23374;52.758;6.872;2023-06-24T03:15:13;9.27;;;5.57;;
37529;SDS011;23374;52.758;6.872;2023-06-24T03:17:34;9.17;;;5.53;;
37529;SDS011;23374;52.758;6.872;2023-06-24T03:19:55;11.10;;;5.57;;
37529;SDS011;23374;52.758;6.872;2023-06-24T03:22:15;10.63;;;5.27;;
37529;SDS011;23374;52.758;6.872;2023-06-24T03:24:37;9.20;;;5.73;;
37529;SDS011;23374;52.758;6.872;2023-06-24T03:26:57;9.00;;;5.37;;
37529;SDS011;23374;52.758;6.872;2023-06-24T03:29:17;11.93;;;5.20;;
37529;SDS011;23374;52.758;6.872;2023-06-24T03:31:37;10.47;;;5.50;;
37529;SDS011;23374;52.758;6.872;2023-06-24T03:34:03;9.63;;;6.10;;
37529;SDS011;23374;52.758;6.872;2023-06-24T03:36:24;7.70;;;5.40;;
37529;SDS011;23374;52.758;6.872;2023-06-24T03:38:44;7.13;;;5.13;;
37529;SDS011;23374;52.758;6.872;2023-06-24T03:41:04;13.40;;;5.60;;
37529;SDS011;23374;52.758;6.872;2023-06-24T03:43:24;6.73;;;4.67;;
37529;SDS011;23374;52.758;6.872;2023-06-24T03:45:45;7.77;;;5.07;;
37529;SDS011;23374;52.758;6.872;2023-06-24T03:48:05;8.07;;;5.53;;
37529;SDS011;23374;52.758;6.872;2023-06-24T03:50:26;10.00;;;5.03;;
37529;SDS011;23374;52.758;6.872;2023-06-24T03:52:46;8.93;;;4.93;;
37529;SDS011;23374;52.758;6.872;2023-06-24T03:55:07;7.07;;;4.87;;
37529;SDS011;23374;52.758;6.872;2023-06-24T03:57:27;7.27;;;4.27;;
37529;SDS011;23374;52.758;6.872;2023-06-24T03:59:48;7.67;;;4.67;;
37529;SDS011;23374;52.758;6.872;2023-06-24T04:02:08;9.87;;;5.47;;
37529;SDS011;23374;52.758;6.872;2023-06-24T04:04:28;7.83;;;4.60;;
37529;SDS011;23374;52.758;6.872;2023-06-24T04:06:49;8.80;;;5.57;;
37529;SDS011;23374;52.758;6.872;2023-06-24T04:09:09;8.03;;;4.90;;
37529;SDS011;23374;52.758;6.872;2023-06-24T04:11:30;9.27;;;5.00;;
37529;SDS011;23374;52.758;6.872;2023-06-24T04:13:50;10.77;;;5.70;;
37529;SDS011;23374;52.758;6.872;2023-06-24T04:16:11;9.37;;;5.53;;
37529;SDS011;23374;52.758;6.872;2023-06-24T04:18:31;11.20;;;5.70;;
37529;SDS011;23374;52.758;6.872;2023-06-24T04:20:52;8.60;;;5.40;;
37529;SDS011;23374;52.758;6.872;2023-06-24T04:23:13;8.83;;;5.50;;
37529;SDS011;23374;52.758;6.872;2023-06-24T04:25:34;11.87;;;5.23;;
37529;SDS011;23374;52.758;6.872;2023-06-24T04:27:55;7.90;;;5.43;;
37529;SDS011;23374;52.758;6.872;2023-06-24T04:30:15;10.63;;;5.43;;
37529;SDS011;23374;52.758;6.872;2023-06-24T04:32:36;9.10;;;5.40;;
37529;SDS011;23374;52.758;6.872;2023-06-24T04:35:00;8.43;;;5.80;;
37529;SDS011;23374;52.758;6.872;2023-06-24T04:37:20;9.20;;;5.67;;
37529;SDS011;23374;52.758;6.872;2023-06-24T04:39:42;7.80;;;5.30;;
37529;SDS011;23374;52.758;6.872;2023-06-24T04:42:04;10.53;;;5.73;;
37529;SDS011;23374;52.758;6.872;2023-06-24T04:44:25;10.43;;;6.40;;
37529;SDS011;23374;52.758;6.872;2023-06-24T04:46:45;10.90;;;7.03;;
37529;SDS011;23374;52.758;6.872;2023-06-24T04:49:06;8.93;;;5.87;;
37529;SDS011;23374;52.758;6.872;2023-06-24T04:51:27;11.33;;;7.40;;
37529;SDS011;23374;52.758;6.872;2023-06-24T04:53:47;8.33;;;5.40;;
37529;SDS011;23374;52.758;6.872;2023-06-24T04:56:08;10.17;;;6.13;;
37529;SDS011;23374;52.758;6.872;2023-06-24T04:58:28;9.90;;;6.33;;
37529;SDS011;23374;52.758;6.872;2023-06-24T05:00:49;11.97;;;6.13;;
37529;SDS011;23374;52.758;6.872;2023-06-24T05:03:09;10.47;;;5.87;;
37529;SDS011;23374;52.758;6.872;2023-06-24T05:05:30;10.97;;;6.53;;
37529;SDS011;23374;52.758;6.872;2023-06-24T05:07:50;10.90;;;6.57;;
37529;SDS011;23374;52.758;6.872;2023-06-24T05:10:10;9.37;;;6.27;;
37529;SDS011;23374;52.758;6.872;2023-06-24T05:12:30;11.10;;;6.80;;
37529;SDS011;23374;52.758;6.872;2023-06-24T05:14:51;11.80;;;6.50;;
37529;SDS011;23374;52.758;6.872;2023-06-24T05:17:11;13.10;;;6.07;;
37529;SDS011;23374;52.758;6.872;2023-06-24T05:19:32;11.00;;;6.00;;
37529;SDS011;23374;52.758;6.872;2023-06-24T05:21:53;10.47;;;6.63;;
37529;SDS011;23374;52.758;6.872;2023-06-24T05:24:13;10.40;;;6.40;;
37529;SDS011;23374;52.758;6.872;2023-06-24T05:26:33;12.13;;;6.80;;
37529;SDS011;23374;52.758;6.872;2023-06-24T05:28:54;8.63;;;6.13;;
37529;SDS011;23374;52.758;6.872;2023-06-24T05:31:14;8.33;;;6.07;;
37529;SDS011;23374;52.758;6.872;2023-06-24T05:33:37;10.87;;;7.20;;
37529;SDS011;23374;52.758;6.872;2023-06-24T05:35:58;11.63;;;6.73;;
37529;SDS011;23374;52.758;6.872;2023-06-24T05:38:18;9.87;;;6.63;;
37529;SDS011;23374;52.758;6.872;2023-06-24T05:40:38;10.70;;;6.73;;
37529;SDS011;23374;52.758;6.872;2023-06-24T05:42:58;9.77;;;6.33;;
37529;SDS011;23374;52.758;6.872;2023-06-24T05:45:20;9.87;;;6.87;;
37529;SDS011;23374;52.758;6.872;2023-06-24T05:47:41;12.07;;;7.17;;
37529;SDS011;23374;52.758;6.872;2023-06-24T05:50:01;12.67;;;6.30;;
37529;SDS011;23374;52.758;6.872;2023-06-24T05:52:22;10.03;;;6.67;;
37529;SDS011;23374;52.758;6.872;2023-06-24T05:54:42;10.97;;;6.70;;
37529;SDS011;23374;52.758;6.872;2023-06-24T05:57:04;10.37;;;7.03;;
37529;SDS011;23374;52.758;6.872;2023-06-24T05:59:25;10.43;;;6.70;;
37529;SDS011;23374;52.758;6.872;2023-06-24T06:01:45;10.73;;;7.10;;
37529;SDS011;23374;52.758;6.872;2023-06-24T06:04:06;11.23;;;7.27;;
37529;SDS011;23374;52.758;6.872;2023-06-24T06:06:26;11.83;;;6.57;;
37529;SDS011;23374;52.758;6.872;2023-06-24T06:08:47;10.70;;;7.07;;
37529;SDS011;23374;52.758;6.872;2023-06-24T06:11:11;10.37;;;6.67;;
37529;SDS011;23374;52.758;6.872;2023-06-24T06:13:31;12.63;;;6.60;;
37529;SDS011;23374;52.758;6.872;2023-06-24T06:15:52;11.03;;;6.47;;
37529;SDS011;23374;52.758;6.872;2023-06-24T06:18:12;10.70;;;6.67;;
37529;SDS011;23374;52.758;6.872;2023-06-24T06:20:33;12.07;;;6.90;;
37529;SDS011;23374;52.758;6.872;2023-06-24T06:22:53;7.93;;;5.67;;
37529;SDS011;23374;52.758;6.872;2023-06-24T06:25:14;9.33;;;6.53;;
37529;SDS011;23374;52.758;6.872;2023-06-24T06:27:34;12.03;;;6.40;;
37529;SDS011;23374;52.758;6.872;2023-06-24T06:29:55;8.80;;;5.73;;
37529;SDS011;23374;52.758;6.872;2023-06-24T06:32:27;9.90;;;5.43;;
37529;SDS011;23374;52.758;6.872;2023-06-24T06:34:48;9.17;;;6.23;;
37529;SDS011;23374;52.758;6.872;2023-06-24T06:37:08;8.63;;;5.43;;
37529;SDS011;23374;52.758;6.872;2023-06-24T06:39:28;8.53;;;5.90;;
37529;SDS011;23374;52.758;6.872;2023-06-24T06:41:48;9.17;;;6.13;;
37529;SDS011;23374;52.758;6.872;2023-06-24T06:44:09;10.83;;;5.93;;
37529;SDS011;23374;52.758;6.872;2023-06-24T06:46:29;10.60;;;5.37;;
37529;SDS011;23374;52.758;6.872;2023-06-24T06:48:49;8.90;;;4.70;;
37529;SDS011;23374;52.758;6.872;2023-06-24T06:51:10;10.13;;;5.90;;
37529;SDS011;23374;52.758;6.872;2023-06-24T06:53:31;9.57;;;5.47;;
37529;SDS011;23374;52.758;6.872;2023-06-24T06:55:52;9.47;;;5.33;;
37529;SDS011;23374;52.758;6.872;2023-06-24T06:58:12;7.90;;;5.20;;
37529;SDS011;23374;52.758;6.872;2023-06-24T07:00:32;8.00;;;5.97;;
37529;SDS011;23374;52.758;6.872;2023-06-24T07:02:53;9.40;;;5.87;;
37529;SDS011;23374;52.758;6.872;2023-06-24T07:05:13;7.83;;;5.63;;
37529;SDS011;23374;52.758;6.872;2023-06-24T07:07:33;8.77;;;5.60;;
37529;SDS011;23374;52.758;6.872;2023-06-24T07:09:53;8.70;;;6.07;;
37529;SDS011;23374;52.758;6.872;2023-06-24T07:12:14;11.83;;;5.83;;
37529;SDS011;23374;52.758;6.872;2023-06-24T07:14:34;12.17;;;6.10;;
37529;SDS011;23374;52.758;6.872;2023-06-24T07:16:54;8.67;;;5.93;;
37529;SDS011;23374;52.758;6.872;2023-06-24T07:19:15;9.87;;;6.40;;
37529;SDS011;23374;52.758;6.872;2023-06-24T07:21:35;11.13;;;6.30;;
37529;SDS011;23374;52.758;6.872;2023-06-24T07:23:55;11.43;;;6.57;;
37529;SDS011;23374;52.758;6.872;2023-06-24T07:26:16;10.63;;;6.17;;
37529;SDS011;23374;52.758;6.872;2023-06-24T07:28:36;9.60;;;5.77;;
37529;SDS011;23374;52.758;6.872;2023-06-24T07:30:57;9.00;;;5.10;;
37529;SDS011;23374;52.758;6.872;2023-06-24T07:33:17;9.77;;;5.93;;
37529;SDS011;23374;52.758;6.872;2023-06-24T07:35:38;7.40;;;5.33;;
37529;SDS011;23374;52.758;6.872;2023-06-24T07:37:58;9.13;;;5.60;;
37529;SDS011;23374;52.758;6.872;2023-06-24T07:40:19;10.90;;;6.00;;
37529;SDS011;23374;52.758;6.872;2023-06-24T07:42:39;7.80;;;5.13;;
37529;SDS011;23374;52.758;6.872;2023-06-24T07:45:01;8.60;;;5.63;;
37529;SDS011;23374;52.758;6.872;2023-06-24T07:47:21;8.97;;;5.50;;
37529;SDS011;23374;52.758;6.872;2023-06-24T07:49:42;10.27;;;6.10;;
37529;SDS011;23374;52.758;6.872;2023-06-24T07:52:03;9.60;;;5.70;;
37529;SDS011;23374;52.758;6.872;2023-06-24T07:54:24;14.03;;;6.00;;
37529;SDS011;23374;52.758;6.872;2023-06-24T07:56:44;9.43;;;5.50;;
37529;SDS011;23374;52.758;6.872;2023-06-24T07:59:04;11.70;;;6.33;;
37529;SDS011;23374;52.758;6.872;2023-06-24T08:01:24;10.70;;;6.27;;
37529;SDS011;23374;52.758;6.872;2023-06-24T08:03:45;12.73;;;6.67;;
37529;SDS011;23374;52.758;6.872;2023-06-24T08:06:05;11.10;;;6.43;;
37529;SDS011;23374;52.758;6.872;2023-06-24T08:08:25;11.70;;;6.07;;
37529;SDS011;23374;52.758;6.872;2023-06-24T08:10:46;9.47;;;5.63;;
37529;SDS011;23374;52.758;6.872;2023-06-24T08:13:06;9.63;;;6.73;;
37529;SDS011;23374;52.758;6.872;2023-06-24T08:15:27;9.50;;;5.70;;
37529;SDS011;23374;52.758;6.872;2023-06-24T08:17:54;11.37;;;6.60;;
37529;SDS011;23374;52.758;6.872;2023-06-24T08:20:14;11.27;;;6.33;;
37529;SDS011;23374;52.758;6.872;2023-06-24T08:22:34;11.07;;;6.07;;
37529;SDS011;23374;52.758;6.872;2023-06-24T08:24:55;11.10;;;6.73;;
37529;SDS011;23374;52.758;6.872;2023-06-24T08:27:16;11.53;;;6.40;;
37529;SDS011;23374;52.758;6.872;2023-06-24T08:29:36;10.40;;;6.17;;
37529;SDS011;23374;52.758;6.872;2023-06-24T08:31:57;13.20;;;6.33;;
37529;SDS011;23374;52.758;6.872;2023-06-24T08:34:18;10.87;;;6.07;;
37529;SDS011;23374;52.758;6.872;2023-06-24T08:36:38;11.70;;;6.40;;
37529;SDS011;23374;52.758;6.872;2023-06-24T08:38:58;10.17;;;6.20;;
37529;SDS011;23374;52.758;6.872;2023-06-24T08:41:22;9.23;;;6.00;;
37529;SDS011;23374;52.758;6.872;2023-06-24T08:43:46;9.67;;;6.27;;
37529;SDS011;23374;52.758;6.872;2023-06-24T08:46:07;9.83;;;6.30;;
37529;SDS011;23374;52.758;6.872;2023-06-24T08:48:28;8.77;;;5.70;;
37529;SDS011;23374;52.758;6.872;2023-06-24T08:50:53;10.20;;;6.60;;
37529;SDS011;23374;52.758;6.872;2023-06-24T08:53:18;12.27;;;6.60;;
37529;SDS011;23374;52.758;6.872;2023-06-24T08:55:40;10.13;;;6.27;;
37529;SDS011;23374;52.758;6.872;2023-06-24T08:58:03;10.73;;;5.93;;
37529;SDS011;23374;52.758;6.872;2023-06-24T09:00:24;9.73;;;6.10;;
37529;SDS011;23374;52.758;6.872;2023-06-24T09:02:46;10.87;;;5.93;;
37529;SDS011;23374;52.758;6.872;2023-06-24T09:05:07;11.80;;;6.33;;
37529;SDS011;23374;52.758;6.872;2023-06-24T09:07:28;9.23;;;5.20;;
37529;SDS011;23374;52.758;6.872;2023-06-24T09:09:48;8.73;;;5.60;;
37529;SDS011;23374;52.758;6.872;2023-06-24T09:12:10;10.90;;;5.73;;
37529;SDS011;23374;52.758;6.872;2023-06-24T09:14:33;8.97;;;5.13;;
37529;SDS011;23374;52.758;6.872;2023-06-24T09:17:00;10.23;;;5.73;;
37529;SDS011;23374;52.758;6.872;2023-06-24T09:19:26;8.77;;;5.27;;
37529;SDS011;23374;52.758;6.872;2023-06-24T09:21:52;9.07;;;4.50;;
37529;SDS011;23374;52.758;6.872;2023-06-24T09:24:12;9.70;;;5.47;;
37529;SDS011;23374;52.758;6.872;2023-06-24T09:26:33;10.67;;;5.83;;
37529;SDS011;23374;52.758;6.872;2023-06-24T09:28:54;8.50;;;5.40;;
37529;SDS011;23374;52.758;6.872;2023-06-24T09:31:14;10.67;;;6.30;;
37529;SDS011;23374;52.758;6.872;2023-06-24T09:33:35;9.47;;;5.73;;
37529;SDS011;23374;52.758;6.872;2023-06-24T09:35:56;11.20;;;5.47;;
37529;SDS011;23374;52.758;6.872;2023-06-24T09:38:20;8.53;;;4.53;;
37529;SDS011;23374;52.758;6.872;2023-06-24T09:40:53;8.13;;;4.87;;
37529;SDS011;23374;52.758;6.872;2023-06-24T09:43:23;5.93;;;4.30;;
37529;SDS011;23374;52.758;6.872;2023-06-24T09:45:43;9.73;;;5.57;;
37529;SDS011;23374;52.758;6.872;2023-06-24T09:48:04;14.17;;;4.63;;
37529;SDS011;23374;52.758;6.872;2023-06-24T09:50:24;10.63;;;6.03;;
37529;SDS011;23374;52.758;6.872;2023-06-24T09:52:45;10.30;;;4.93;;
37529;SDS011;23374;52.758;6.872;2023-06-24T09:55:07;6.07;;;3.93;;
37529;SDS011;23374;52.758;6.872;2023-06-24T09:57:30;8.63;;;4.53;;
37529;SDS011;23374;52.758;6.872;2023-06-24T09:59:52;8.27;;;5.20;;
37529;SDS011;23374;52.758;6.872;2023-06-24T10:02:13;6.60;;;4.57;;
37529;SDS011;23374;52.758;6.872;2023-06-24T10:04:35;6.90;;;4.17;;
37529;SDS011;23374;52.758;6.872;2023-06-24T10:06:56;6.90;;;4.20;;
37529;SDS011;23374;52.758;6.872;2023-06-24T10:09:17;7.37;;;4.20;;
37529;SDS011;23374;52.758;6.872;2023-06-24T10:11:39;8.17;;;4.10;;
37529;SDS011;23374;52.758;6.872;2023-06-24T10:13:59;6.27;;;3.77;;
37529;SDS011;23374;52.758;6.872;2023-06-24T10:16:20;5.73;;;3.37;;
37529;SDS011;23374;52.758;6.872;2023-06-24T10:18:41;5.20;;;3.60;;
37529;SDS011;23374;52.758;6.872;2023-06-24T10:21:08;4.53;;;3.13;;
37529;SDS011;23374;52.758;6.872;2023-06-24T10:23:35;4.73;;;2.90;;
37529;SDS011;23374;52.758;6.872;2023-06-24T10:26:05;5.93;;;3.40;;
37529;SDS011;23374;52.758;6.872;2023-06-24T10:32:39;5.50;;;2.97;;
37529;SDS011;23374;52.758;6.872;2023-06-24T10:35:04;4.57;;;2.60;;
37529;SDS011;23374;52.758;6.872;2023-06-24T10:37:26;5.23;;;3.23;;
37529;SDS011;23374;52.758;6.872;2023-06-24T10:39:58;8.07;;;4.47;;
37529;SDS011;23374;52.758;6.872;2023-06-24T10:42:53;7.00;;;4.17;;
37529;SDS011;23374;52.758;6.872;2023-06-24T10:45:18;6.57;;;4.50;;
37529;SDS011;23374;52.758;6.872;2023-06-24T10:47:40;7.60;;;3.90;;
37529;SDS011;23374;52.758;6.872;2023-06-24T10:50:05;8.83;;;3.83;;
37529;SDS011;23374;52.758;6.872;2023-06-24T10:52:27;5.50;;;3.77;;
37529;SDS011;23374;52.758;6.872;2023-06-24T10:54:49;4.67;;;3.40;;
37529;SDS011;23374;52.758;6.872;2023-06-24T10:57:11;4.70;;;3.10;;
37529;SDS011;23374;52.758;6.872;2023-06-24T10:59:35;5.10;;;2.73;;
37529;SDS011;23374;52.758;6.872;2023-06-24T11:01:59;7.23;;;3.37;;
37529;SDS011;23374;52.758;6.872;2023-06-24T11:04:19;5.20;;;3.10;;
37529;SDS011;23374;52.758;6.872;2023-06-24T11:06:39;4.47;;;3.20;;
37529;SDS011;23374;52.758;6.872;2023-06-24T11:09:02;5.60;;;3.00;;
37529;SDS011;23374;52.758;6.872;2023-06-24T11:11:22;6.30;;;3.13;;
37529;SDS011;23374;52.758;6.872;2023-06-24T11:13:43;5.70;;;2.90;;
37529;SDS011;23374;52.758;6.872;2023-06-24T11:16:03;3.40;;;2.60;;
37529;SDS011;23374;52.758;6.872;2023-06-24T11:18:24;3.73;;;2.53;;
37529;SDS011;23374;52.758;6.872;2023-06-24T11:20:44;4.57;;;2.53;;
37529;SDS011;23374;52.758;6.872;2023-06-24T11:23:08;4.10;;;2.60;;
37529;SDS011;23374;52.758;6.872;2023-06-24T11:25:30;2.83;;;2.27;;
37529;SDS011;23374;52.758;6.872;2023-06-24T11:27:50;4.57;;;2.30;;
37529;SDS011;23374;52.758;6.872;2023-06-24T11:30:13;4.57;;;2.17;;
37529;SDS011;23374;52.758;6.872;2023-06-24T11:32:36;2.70;;;2.20;;
37529;SDS011;23374;52.758;6.872;2023-06-24T11:34:58;3.37;;;2.43;;
37529;SDS011;23374;52.758;6.872;2023-06-24T11:37:18;4.63;;;2.20;;
37529;SDS011;23374;52.758;6.872;2023-06-24T11:39:38;3.73;;;2.67;;
37529;SDS011;23374;52.758;6.872;2023-06-24T11:41:59;3.07;;;2.27;;
37529;SDS011;23374;52.758;6.872;2023-06-24T11:44:25;6.43;;;2.50;;
37529;SDS011;23374;52.758;6.872;2023-06-24T11:46:46;4.40;;;2.40;;
37529;SDS011;23374;52.758;6.872;2023-06-24T11:49:07;2.97;;;2.27;;
37529;SDS011;23374;52.758;6.872;2023-06-24T11:51:28;3.93;;;2.30;;
37529;SDS011;23374;52.758;6.872;2023-06-24T11:53:49;3.40;;;2.40;;
37529;SDS011;23374;52.758;6.872;2023-06-24T11:56:10;3.80;;;2.40;;
37529;SDS011;23374;52.758;6.872;2023-06-24T11:58:34;3.57;;;2.40;;
37529;SDS011;23374;52.758;6.872;2023-06-24T12:00:58;2.60;;;2.10;;
37529;SDS011;23374;52.758;6.872;2023-06-24T12:03:22;5.00;;;2.70;;
37529;SDS011;23374;52.758;6.872;2023-06-24T12:05:46;4.50;;;2.70;;
37529;SDS011;23374;52.758;6.872;2023-06-24T12:08:10;2.83;;;2.07;;
37529;SDS011;23374;52.758;6.872;2023-06-24T12:10:33;4.67;;;2.67;;
37529;SDS011;23374;52.758;6.872;2023-06-24T12:12:56;3.87;;;2.60;;
37529;SDS011;23374;52.758;6.872;2023-06-24T12:15:18;3.60;;;2.40;;
37529;SDS011;23374;52.758;6.872;2023-06-24T12:17:39;4.20;;;2.20;;
37529;SDS011;23374;52.758;6.872;2023-06-24T12:19:59;3.97;;;2.63;;
37529;SDS011;23374;52.758;6.872;2023-06-24T12:22:20;4.70;;;2.53;;
37529;SDS011;23374;52.758;6.872;2023-06-24T12:24:41;4.90;;;2.63;;
37529;SDS011;23374;52.758;6.872;2023-06-24T12:27:01;3.27;;;2.50;;
37529;SDS011;23374;52.758;6.872;2023-06-24T12:29:21;4.90;;;2.70;;
37529;SDS011;23374;52.758;6.872;2023-06-24T12:31:42;3.80;;;2.60;;
37529;SDS011;23374;52.758;6.872;2023-06-24T12:34:02;3.80;;;2.43;;
37529;SDS011;23374;52.758;6.872;2023-06-24T12:36:24;3.43;;;2.23;;
37529;SDS011;23374;52.758;6.872;2023-06-24T12:38:45;6.47;;;2.77;;
37529;SDS011;23374;52.758;6.872;2023-06-24T12:41:06;4.57;;;2.60;;
37529;SDS011;23374;52.758;6.872;2023-06-24T12:43:26;4.47;;;2.20;;
37529;SDS011;23374;52.758;6.872;2023-06-24T12:45:46;3.77;;;2.70;;
37529;SDS011;23374;52.758;6.872;2023-06-24T12:48:07;3.77;;;2.40;;
37529;SDS011;23374;52.758;6.872;2023-06-24T12:50:28;3.40;;;2.40;;
37529;SDS011;23374;52.758;6.872;2023-06-24T12:52:51;3.13;;;2.30;;
37529;SDS011;23374;52.758;6.872;2023-06-24T12:55:11;8.00;;;2.60;;
37529;SDS011;23374;52.758;6.872;2023-06-24T12:57:32;3.60;;;2.60;;
37529;SDS011;23374;52.758;6.872;2023-06-24T12:59:52;4.13;;;2.27;;
37529;SDS011;23374;52.758;6.872;2023-06-24T13:02:12;3.27;;;2.50;;
37529;SDS011;23374;52.758;6.872;2023-06-24T13:04:32;3.83;;;2.13;;
37529;SDS011;23374;52.758;6.872;2023-06-24T13:06:53;4.23;;;2.43;;
37529;SDS011;23374;52.758;6.872;2023-06-24T13:09:13;2.80;;;2.20;;
37529;SDS011;23374;52.758;6.872;2023-06-24T13:11:34;4.40;;;2.70;;
37529;SDS011;23374;52.758;6.872;2023-06-24T13:13:54;7.53;;;2.93;;
37529;SDS011;23374;52.758;6.872;2023-06-24T13:16:15;3.80;;;2.50;;
37529;SDS011;23374;52.758;6.872;2023-06-24T13:18:35;6.13;;;2.50;;
37529;SDS011;23374;52.758;6.872;2023-06-24T13:20:55;5.47;;;2.57;;
37529;SDS011;23374;52.758;6.872;2023-06-24T13:23:16;3.70;;;2.43;;
37529;SDS011;23374;52.758;6.872;2023-06-24T13:25:36;5.73;;;2.70;;
37529;SDS011;23374;52.758;6.872;2023-06-24T13:27:57;4.30;;;2.80;;
37529;SDS011;23374;52.758;6.872;2023-06-24T13:30:17;3.67;;;2.60;;
37529;SDS011;23374;52.758;6.872;2023-06-24T13:32:38;4.37;;;2.50;;
37529;SDS011;23374;52.758;6.872;2023-06-24T13:34:59;4.10;;;2.60;;
37529;SDS011;23374;52.758;6.872;2023-06-24T13:37:19;3.90;;;2.50;;
37529;SDS011;23374;52.758;6.872;2023-06-24T13:39:39;3.63;;;2.63;;
37529;SDS011;23374;52.758;6.872;2023-06-24T13:42:00;4.00;;;2.50;;
37529;SDS011;23374;52.758;6.872;2023-06-24T13:44:21;3.80;;;2.70;;
37529;SDS011;23374;52.758;6.872;2023-06-24T13:46:41;4.87;;;2.60;;
37529;SDS011;23374;52.758;6.872;2023-06-24T13:49:02;4.30;;;2.80;;
37529;SDS011;23374;52.758;6.872;2023-06-24T13:51:22;4.47;;;2.57;;
37529;SDS011;23374;52.758;6.872;2023-06-24T13:53:43;4.00;;;2.30;;
37529;SDS011;23374;52.758;6.872;2023-06-24T13:56:04;4.50;;;2.50;;
37529;SDS011;23374;52.758;6.872;2023-06-24T13:58:24;5.50;;;2.73;;
37529;SDS011;23374;52.758;6.872;2023-06-24T14:00:45;6.10;;;3.77;;
37529;SDS011;23374;52.758;6.872;2023-06-24T14:03:05;3.30;;;2.13;;
37529;SDS011;23374;52.758;6.872;2023-06-24T14:05:26;3.90;;;2.50;;
37529;SDS011;23374;52.758;6.872;2023-06-24T14:07:46;4.47;;;2.50;;
37529;SDS011;23374;52.758;6.872;2023-06-24T14:10:08;3.70;;;2.60;;
37529;SDS011;23374;52.758;6.872;2023-06-24T14:12:28;5.30;;;2.70;;
37529;SDS011;23374;52.758;6.872;2023-06-24T14:14:49;3.07;;;2.30;;
37529;SDS011;23374;52.758;6.872;2023-06-24T14:17:10;4.60;;;2.70;;
37529;SDS011;23374;52.758;6.872;2023-06-24T14:19:32;5.00;;;2.60;;
37529;SDS011;23374;52.758;6.872;2023-06-24T14:21:52;3.73;;;2.50;;
37529;SDS011;23374;52.758;6.872;2023-06-24T14:24:13;3.57;;;2.50;;